Time;durP1;ratioP1;P1;durP2;ratioP2;P2;SDS_P1;SDS_P2;PMS_P1;PMS_P2;Temp;Humidity;BMP_temperature;BMP_pressure;BME280_temperature;BME280_humidity;BME280_pressure;Samples;Min_cycle;Max_cycle;Signal;HPM_P1;HPM_P2
2022/10/13 00:00:56;;;;;;;0.22;0.22;;;12.50;99.90;;;;;;4983456;28;20585;-79
2022/10/13 00:03:21;;;;;;;2.17;2.08;;;12.60;99.90;;;;;;5001658;28;20033;-79
2022/10/13 00:05:49;;;;;;;0.20;0.20;;;12.50;99.90;;;;;;4982855;28;20137;-78
2022/10/13 00:08:18;;;;;;;0.20;0.20;;;12.60;99.90;;;;;;5001786;28;20029;-78
2022/10/13 00:10:46;;;;;;;1.42;1.42;;;12.50;99.90;;;;;;4987916;28;20470;-78
2022/10/13 00:13:12;;;;;;;0.10;0.10;;;12.40;99.90;;;;;;4986520;28;20104;-79
2022/10/13 00:15:39;;;;;;;0.20;0.20;;;12.40;99.90;;;;;;4995703;28;20428;-79
2022/10/13 00:18:06;;;;;;;0.35;0.35;;;12.40;99.90;;;;;;5014599;28;20017;-79
2022/10/13 00:20:49;;;;;;;0.52;0.52;;;12.40;99.90;;;;;;5009949;28;20056;-85
2022/10/13 00:23:16;;;;;;;0.32;0.32;;;12.40;99.90;;;;;;5013787;28;20046;-80
2022/10/13 00:25:44;;;;;;;0.10;0.10;;;12.40;99.90;;;;;;5014938;28;20489;-81
2022/10/13 00:28:10;;;;;;;1.85;1.70;;;12.40;99.90;;;;;;4998423;28;20339;-78
2022/10/13 00:30:46;;;;;;;0.17;0.17;;;12.40;99.90;;;;;;5016989;28;20050;-81
2022/10/13 00:33:15;;;;;;;0.20;0.20;;;12.30;99.90;;;;;;5017997;28;20108;-78
2022/10/13 00:35:45;;;;;;;3.25;3.13;;;12.30;99.90;;;;;;5021254;28;20036;-78
2022/10/13 00:38:11;;;;;;;0.68;0.68;;;12.30;99.90;;;;;;5003946;28;20018;-79
2022/10/13 00:41:03;;;;;;;3.33;3.05;;;12.30;99.90;;;;;;5010682;28;20120;-78
2022/10/13 00:43:58;;;;;;;12.45;11.90;;;12.30;99.90;;;;;;5026520;28;20048;-78
2022/10/13 00:46:29;;;;;;;3.97;3.70;;;12.30;99.90;;;;;;5029874;28;20033;-78
2022/10/13 00:49:00;;;;;;;1.85;1.75;;;12.30;99.90;;;;;;5022693;28;20025;-78
2022/10/13 00:51:30;;;;;;;0.80;0.80;;;12.30;99.90;;;;;;5012821;28;20046;-78
2022/10/13 00:53:57;;;;;;;5.05;4.63;;;12.30;99.90;;;;;;5013651;28;20091;-83
2022/10/13 00:56:45;;;;;;;0.52;0.52;;;12.30;99.90;;;;;;5008801;28;20057;-79
2022/10/13 00:59:22;;;;;;;0.30;0.30;;;12.20;99.90;;;;;;5003449;28;20080;-82
2022/10/13 01:01:51;;;;;;;0.80;0.80;;;12.20;99.90;;;;;;4989768;28;20022;-79
2022/10/13 01:04:21;;;;;;;0.20;0.20;;;12.10;99.90;;;;;;5006867;28;20022;-84
2022/10/13 01:06:48;;;;;;;0.20;0.20;;;12.10;99.90;;;;;;5006095;28;20299;-80
2022/10/13 01:09:14;;;;;;;3.58;3.40;;;12.10;99.90;;;;;;4987402;28;20018;-82
2022/10/13 01:11:58;;;;;;;1.05;1.05;;;12.00;99.90;;;;;;5007392;28;20436;-78
2022/10/13 01:14:38;;;;;;;0.20;0.20;;;12.10;99.90;;;;;;5029083;28;20018;-78
2022/10/13 01:17:20;;;;;;;0.45;0.45;;;12.10;99.90;;;;;;5025991;28;20026;-78
2022/10/13 01:19:58;;;;;;;0.60;0.60;;;12.10;99.90;;;;;;4990265;28;20025;-78
2022/10/13 01:22:51;;;;;;;0.20;0.20;;;12.10;99.90;;;;;;5019925;28;20112;-83
2022/10/13 01:25:54;;;;;;;0.20;0.20;;;12.00;99.90;;;;;;5008375;28;20030;-78
2022/10/13 01:28:49;;;;;;;0.73;0.73;;;12.10;99.90;;;;;;5023185;28;20078;-78
2022/10/13 01:31:24;;;;;;;0.10;0.10;;;12.10;99.90;;;;;;5005141;28;20037;-78
2022/10/13 01:34:25;;;;;;;0.20;0.20;;;12.10;99.90;;;;;;5008589;28;20041;-78
2022/10/13 01:37:14;;;;;;;3.42;3.30;;;12.10;99.90;;;;;;5026560;28;20029;-78
2022/10/13 01:40:35;;;;;;;0.20;0.20;;;12.10;99.90;;;;;;5010253;28;20018;-78
2022/10/13 01:43:11;;;;;;;0.10;0.10;;;12.20;99.90;;;;;;5017887;28;20037;-78
2022/10/13 01:46:17;;;;;;;0.10;0.10;;;12.20;99.90;;;;;;5010248;28;20045;-78
2022/10/13 01:49:11;;;;;;;0.20;0.20;;;12.10;99.90;;;;;;5020107;28;20053;-81
2022/10/13 01:51:38;;;;;;;7.93;7.53;;;12.10;99.90;;;;;;5029894;28;20045;-79
2022/10/13 01:54:04;;;;;;;0.20;0.20;;;12.10;99.90;;;;;;5009566;28;20018;-78
2022/10/13 01:56:30;;;;;;;0.20;0.20;;;12.10;99.90;;;;;;5020571;28;20524;-82
2022/10/13 01:59:01;;;;;;;0.20;0.20;;;12.10;99.90;;;;;;5017227;28;20450;-80
2022/10/13 02:02:00;;;;;;;0.30;0.30;;;12.00;99.90;;;;;;5002770;28;20036;-78
2022/10/13 02:04:44;;;;;;;0.20;0.20;;;12.00;99.90;;;;;;5019442;28;20295;-78
2022/10/13 02:07:18;;;;;;;0.10;0.10;;;12.00;99.90;;;;;;5028624;28;20038;-78
2022/10/13 02:10:09;;;;;;;9.27;8.25;;;12.00;99.90;;;;;;5027000;28;20041;-79
2022/10/13 02:12:47;;;;;;;0.45;0.45;;;12.00;99.90;;;;;;5011187;28;20037;-78
2022/10/13 02:15:17;;;;;;;0.20;0.20;;;12.00;99.90;;;;;;5011888;28;20449;-78
2022/10/13 02:17:43;;;;;;;0.17;0.17;;;12.00;99.90;;;;;;5027203;28;20013;-78
2022/10/13 02:20:10;;;;;;;0.17;0.17;;;12.00;99.90;;;;;;5007832;28;20018;-78
2022/10/13 02:22:41;;;;;;;0.77;0.77;;;12.00;99.90;;;;;;5025815;28;20018;-78
2022/10/13 02:25:07;;;;;;;0.20;0.20;;;12.00;99.90;;;;;;5007652;28;20028;-78
2022/10/13 02:27:33;;;;;;;0.28;0.28;;;11.90;99.90;;;;;;5009481;28;20046;-78
2022/10/13 02:30:07;;;;;;;0.63;0.63;;;11.90;99.90;;;;;;5023814;28;20037;-78
2022/10/13 02:32:33;;;;;;;1.90;1.85;;;12.00;99.90;;;;;;5025902;28;20030;-78
2022/10/13 02:34:59;;;;;;;3.20;3.05;;;12.00;99.90;;;;;;5008216;28;20028;-77
2022/10/13 02:37:25;;;;;;;0.20;0.20;;;12.00;99.90;;;;;;5006591;28;20030;-78
2022/10/13 02:39:51;;;;;;;0.40;0.40;;;12.00;99.90;;;;;;5026411;28;20022;-78
2022/10/13 02:42:21;;;;;;;0.30;0.30;;;12.00;99.90;;;;;;5007228;28;20057;-77
2022/10/13 02:44:56;;;;;;;0.77;0.77;;;11.90;99.90;;;;;;5026703;28;20026;-77
2022/10/13 02:47:45;;;;;;;0.20;0.20;;;12.00;99.90;;;;;;5007593;28;20105;-78
2022/10/13 02:50:12;;;;;;;7.35;6.90;;;11.90;99.90;;;;;;5028104;28;20060;-78
2022/10/13 02:52:38;;;;;;;0.73;0.73;;;12.00;99.90;;;;;;5024179;28;20030;-78
2022/10/13 02:55:04;;;;;;;1.55;1.45;;;12.00;99.90;;;;;;5012269;28;20017;-79
2022/10/13 02:57:30;;;;;;;0.40;0.40;;;12.00;99.90;;;;;;5031185;28;20030;-78
2022/10/13 02:59:56;;;;;;;0.32;0.32;;;11.80;99.90;;;;;;5013866;28;20022;-78
2022/10/13 03:02:41;;;;;;;0.10;0.10;;;12.20;99.90;;;;;;5031834;28;20094;-78
2022/10/13 03:05:08;;;;;;;0.20;0.20;;;12.00;99.90;;;;;;5030681;28;20282;-78
2022/10/13 03:07:33;;;;;;;0.10;0.10;;;12.00;99.90;;;;;;5022292;28;20026;-79
2022/10/13 03:09:59;;;;;;;0.28;0.28;;;11.90;99.90;;;;;;5011362;28;20069;-79
2022/10/13 03:12:25;;;;;;;0.75;0.75;;;11.90;99.90;;;;;;5030561;28;20521;-78
2022/10/13 03:14:50;;;;;;;0.20;0.20;;;12.00;99.90;;;;;;5013797;28;20034;-78
2022/10/13 03:17:16;;;;;;;1.27;1.23;;;12.00;99.90;;;;;;5012464;28;20121;-78
2022/10/13 03:19:42;;;;;;;0.10;0.10;;;12.00;99.90;;;;;;5012174;28;20572;-78
2022/10/13 03:22:08;;;;;;;0.20;0.20;;;12.00;99.90;;;;;;5013305;28;20022;-79
2022/10/13 03:24:33;;;;;;;0.30;0.30;;;12.00;99.90;;;;;;5031096;28;20082;-78
2022/10/13 03:26:59;;;;;;;0.10;0.10;;;12.00;99.90;;;;;;5032575;28;20022;-79
2022/10/13 03:29:25;;;;;;;0.30;0.30;;;11.90;99.90;;;;;;5012845;28;20044;-78
2022/10/13 03:31:52;;;;;;;6.32;5.95;;;11.90;99.90;;;;;;5002628;28;20060;-78
2022/10/13 03:34:19;;;;;;;0.55;0.55;;;11.80;99.90;;;;;;5018881;28;20030;-79
2022/10/13 03:36:45;;;;;;;1.85;1.75;;;11.80;99.90;;;;;;5018514;28;20240;-79
2022/10/13 03:39:10;;;;;;;0.13;0.13;;;11.70;99.90;;;;;;5019571;28;20026;-81
2022/10/13 03:41:36;;;;;;;4.30;3.90;;;11.70;99.90;;;;;;5019074;28;20052;-79
2022/10/13 03:44:02;;;;;;;2.55;2.45;;;11.80;99.90;;;;;;5019997;28;20253;-78
2022/10/13 03:46:29;;;;;;;0.20;0.20;;;11.70;99.90;;;;;;5025747;28;20034;-78
2022/10/13 03:48:55;;;;;;;0.43;0.43;;;11.80;99.90;;;;;;5029645;28;20018;-81
2022/10/13 03:51:24;;;;;;;0.20;0.20;;;11.70;99.90;;;;;;5011853;28;20042;-78
2022/10/13 03:53:51;;;;;;;0.43;0.43;;;11.70;99.90;;;;;;5029787;28;20022;-78
2022/10/13 03:56:20;;;;;;;0.35;0.35;;;11.70;99.90;;;;;;5029947;28;20228;-78
2022/10/13 03:58:46;;;;;;;0.22;0.22;;;11.70;99.90;;;;;;5029154;28;20041;-78
2022/10/13 04:01:28;;;;;;;4.40;2.83;;;11.70;99.90;;;;;;5030056;28;20417;-78
2022/10/13 04:03:56;;;;;;;73.97;16.65;;;11.70;99.90;;;;;;5012335;28;20053;-78
2022/10/13 04:06:46;;;;;;;1.38;1.33;;;11.80;99.90;;;;;;5026794;28;20018;-78
2022/10/13 04:09:12;;;;;;;1.02;0.98;;;11.80;99.90;;;;;;5007115;28;20034;-78
2022/10/13 04:11:41;;;;;;;0.30;0.30;;;11.80;99.90;;;;;;5021997;28;20017;-78
2022/10/13 04:14:06;;;;;;;0.15;0.15;;;11.80;99.90;;;;;;5018888;28;20117;-78
2022/10/13 04:16:34;;;;;;;0.40;0.40;;;11.80;99.90;;;;;;5022398;28;20045;-79
2022/10/13 04:19:07;;;;;;;0.52;0.52;;;11.90;99.90;;;;;;5020318;28;20339;-78
2022/10/13 04:21:35;;;;;;;0.28;0.28;;;11.90;99.90;;;;;;5016888;28;20033;-82
2022/10/13 04:24:07;;;;;;;2.67;2.60;;;11.90;99.90;;;;;;5014423;28;20033;-78
2022/10/13 04:26:35;;;;;;;14.07;13.02;;;12.00;99.90;;;;;;5016146;28;20045;-78
2022/10/13 04:29:03;;;;;;;6.13;5.60;;;12.00;99.90;;;;;;5012930;28;20030;-78
2022/10/13 04:31:29;;;;;;;0.50;0.50;;;12.00;99.90;;;;;;5036379;23;20103;-78
2022/10/13 04:33:57;;;;;;;1.55;1.55;;;12.00;99.90;;;;;;5015202;28;20244;-78
2022/10/13 04:36:24;;;;;;;0.90;0.90;;;12.00;99.90;;;;;;5014856;28;20014;-78
2022/10/13 04:38:53;;;;;;;0.20;0.20;;;12.10;99.90;;;;;;4997363;28;20037;-79
2022/10/13 04:41:20;;;;;;;3.45;3.15;;;12.10;99.90;;;;;;4991140;28;20030;-79
2022/10/13 04:43:55;;;;;;;0.20;0.20;;;12.00;99.90;;;;;;5008392;28;20029;-80
2022/10/13 04:46:25;;;;;;;4.45;4.15;;;12.10;99.90;;;;;;5010927;28;20045;-78
2022/10/13 04:48:58;;;;;;;1.05;1.05;;;12.10;99.90;;;;;;4987220;28;20350;-81
2022/10/13 04:51:27;;;;;;;0.52;0.52;;;12.20;99.90;;;;;;5004208;28;20393;-84
2022/10/13 04:53:55;;;;;;;1.27;1.27;;;12.20;99.90;;;;;;5004303;28;20155;-83
2022/10/13 04:56:21;;;;;;;4.78;4.32;;;12.20;99.90;;;;;;5001886;28;20224;-78
2022/10/13 04:58:48;;;;;;;0.43;0.43;;;12.20;99.90;;;;;;4986244;28;20049;-82
2022/10/13 05:01:19;;;;;;;6.50;5.95;;;12.00;99.90;;;;;;5002448;28;20522;-84
2022/10/13 05:03:45;;;;;;;0.10;0.10;;;12.30;99.90;;;;;;4984873;28;20033;-80
2022/10/13 05:06:21;;;;;;;0.20;0.20;;;12.20;99.90;;;;;;5001120;28;20030;-82
2022/10/13 05:08:48;;;;;;;0.10;0.10;;;12.30;99.90;;;;;;5002580;28;20026;-79
2022/10/13 05:11:16;;;;;;;0.20;0.20;;;12.30;99.90;;;;;;5001927;28;20445;-79
2022/10/13 05:13:42;;;;;;;0.20;0.20;;;12.30;99.90;;;;;;5002535;28;20025;-82
2022/10/13 05:16:11;;;;;;;0.85;0.85;;;14.00;99.90;;;;;;4983922;28;20022;-82
2022/10/13 05:18:37;;;;;;;0.80;0.80;;;12.30;99.90;;;;;;5000823;28;20313;-79
2022/10/13 05:21:27;;;;;;;2.25;2.15;;;12.40;99.90;;;;;;4983765;28;20033;-79
2022/10/13 05:23:54;;;;;;;17.13;7.40;;;12.40;99.90;;;;;;4983999;28;20396;-79
2022/10/13 05:26:27;;;;;;;2.28;2.17;;;12.40;99.90;;;;;;5001233;28;20034;-79
2022/10/13 05:28:54;;;;;;;0.10;0.10;;;12.40;99.90;;;;;;5000974;28;20029;-81
2022/10/13 05:31:22;;;;;;;1.77;1.75;;;12.40;99.90;;;;;;5001166;28;20270;-87
2022/10/13 05:33:50;;;;;;;0.15;0.15;;;12.40;99.90;;;;;;4984083;28;20022;-79
2022/10/13 05:36:31;;;;;;;0.45;0.45;;;12.50;99.90;;;;;;5003434;28;20034;-80
2022/10/13 05:39:02;;;;;;;0.68;0.68;;;12.50;99.90;;;;;;4984901;28;20593;-85
2022/10/13 05:41:28;;;;;;;0.20;0.20;;;12.50;99.90;;;;;;5001712;28;20028;-84
2022/10/13 05:44:03;;;;;;;1.58;1.48;;;12.60;99.90;;;;;;5001313;28;20018;-90
2022/10/13 05:46:28;;;;;;;0.38;0.38;;;12.60;99.90;;;;;;4983414;28;20064;-86
2022/10/13 05:48:56;;;;;;;0.55;0.55;;;12.60;99.90;;;;;;5000639;28;20540;-88
2022/10/13 05:51:31;;;;;;;0.10;0.10;;;12.70;99.90;;;;;;5001379;28;20310;-85
2022/10/13 05:54:05;;;;;;;0.20;0.20;;;12.70;99.90;;;;;;5001922;28;20160;-82
2022/10/13 05:56:39;;;;;;;0.57;0.57;;;12.70;99.90;;;;;;5000971;28;20216;-82
2022/10/13 05:59:08;;;;;;;0.63;0.63;;;12.80;99.90;;;;;;5000621;28;20300;-89
2022/10/13 06:01:37;;;;;;;0.15;0.15;;;12.80;99.90;;;;;;5001065;28;20123;-90
2022/10/13 06:04:08;;;;;;;0.20;0.20;;;12.90;99.90;;;;;;5001921;28;20058;-87
2022/10/13 06:06:34;;;;;;;0.20;0.20;;;12.90;99.90;;;;;;4984777;28;20053;-80
2022/10/13 06:09:00;;;;;;;0.45;0.45;;;12.90;99.90;;;;;;5002864;28;20032;-87
2022/10/13 06:11:26;;;;;;;2.38;2.28;;;12.90;99.90;;;;;;4983615;28;20034;-80
2022/10/13 06:13:52;;;;;;;0.22;0.22;;;12.90;99.90;;;;;;5000766;28;20021;-88
2022/10/13 06:16:17;;;;;;;0.20;0.20;;;13.00;99.90;;;;;;4999755;28;20343;-86
2022/10/13 06:18:43;;;;;;;1.00;1.00;;;13.00;99.90;;;;;;5000348;28;20540;-92
2022/10/13 06:21:09;;;;;;;1.27;1.25;;;13.10;99.90;;;;;;4999553;28;20116;-86
2022/10/13 06:23:35;;;;;;;1.50;1.48;;;13.00;99.90;;;;;;5000039;28;20036;-81
2022/10/13 06:26:01;;;;;;;2.75;2.65;;;13.00;99.90;;;;;;4999335;28;20034;-85
2022/10/13 06:28:27;;;;;;;2.50;2.40;;;13.10;99.90;;;;;;4999226;28;20022;-81
2022/10/13 06:30:55;;;;;;;0.80;0.80;;;13.10;99.90;;;;;;4999263;28;20556;-81
2022/10/13 06:33:21;;;;;;;4.28;3.90;;;13.10;99.90;;;;;;4999472;28;20461;-87
2022/10/13 06:35:47;;;;;;;0.35;0.35;;;13.10;99.90;;;;;;5003305;28;20056;-83
2022/10/13 06:38:13;;;;;;;0.38;0.38;;;13.30;99.90;;;;;;5003736;28;20029;-87
2022/10/13 06:40:38;;;;;;;0.52;0.52;;;13.20;99.90;;;;;;5001403;28;20022;-79
2022/10/13 06:43:04;;;;;;;1.25;1.23;;;13.20;99.90;;;;;;5001311;28;20018;-92
2022/10/13 06:45:30;;;;;;;1.58;1.48;;;13.30;99.90;;;;;;4986241;28;20137;-87
2022/10/13 06:47:55;;;;;;;0.20;0.20;;;13.30;99.90;;;;;;5007286;28;20417;-86
2022/10/13 06:50:22;;;;;;;0.32;0.32;;;;;;;;;;5007834;28;20489;-80
2022/10/13 06:52:48;;;;;;;0.20;0.20;;;13.40;99.90;;;;;;5002753;28;20018;-86
2022/10/13 06:55:14;;;;;;;0.95;0.95;;;13.40;99.90;;;;;;5001238;28;20050;-80
2022/10/13 06:57:40;;;;;;;3.13;2.92;;;13.50;99.90;;;;;;5001646;28;20022;-87
2022/10/13 07:00:06;;;;;;;0.25;0.25;;;13.50;99.90;;;;;;5002066;28;20338;-85
2022/10/13 07:02:32;;;;;;;0.35;0.35;;;13.50;99.90;;;;;;5009861;28;20026;-86
2022/10/13 07:04:58;;;;;;;0.63;0.63;;;13.60;99.90;;;;;;5008465;28;20251;-82
2022/10/13 07:07:24;;;;;;;2.28;2.08;;;13.60;99.90;;;;;;5007953;28;20025;-79
2022/10/13 07:09:50;;;;;;;1.33;1.30;;;13.60;99.90;;;;;;5008969;28;20037;-79
2022/10/13 07:12:16;;;;;;;2.60;2.50;;;13.70;99.90;;;;;;5005711;28;20095;-86
2022/10/13 07:14:42;;;;;;;1.10;1.10;;;13.70;99.90;;;;;;5004084;28;20084;-87
2022/10/13 07:17:08;;;;;;;1.13;1.13;;;13.80;99.90;;;;;;5007035;28;20026;-83
2022/10/13 07:19:33;;;;;;;5.82;5.47;;;13.80;99.90;;;;;;5008620;28;20041;-77
2022/10/13 07:21:59;;;;;;;0.88;0.88;;;13.90;99.90;;;;;;5006183;28;20029;-77
2022/10/13 07:24:25;;;;;;;0.55;0.55;;;13.90;99.90;;;;;;5005978;28;20239;-77
2022/10/13 07:26:51;;;;;;;3.15;3.03;;;14.00;99.90;;;;;;5000861;28;20038;-77
2022/10/13 07:29:17;;;;;;;1.15;1.08;;;14.00;99.90;;;;;;5000923;28;20022;-77
2022/10/13 07:31:45;;;;;;;0.20;0.20;;;14.10;99.90;;;;;;4999819;28;20517;-78
2022/10/13 07:34:10;;;;;;;0.20;0.20;;;14.10;99.90;;;;;;5001325;28;20294;-78
2022/10/13 07:36:39;;;;;;;0.15;0.15;;;14.20;99.90;;;;;;5001185;28;20025;-87
2022/10/13 07:39:05;;;;;;;0.90;0.90;;;14.20;99.90;;;;;;5003110;28;20020;-90
2022/10/13 07:41:32;;;;;;;1.23;1.23;;;14.20;99.90;;;;;;5005333;28;20030;-88
2022/10/13 07:43:57;;;;;;;1.35;1.25;;;14.20;99.90;;;;;;5005098;28;20084;-80
2022/10/13 07:46:24;;;;;;;0.75;0.75;;;14.40;99.90;;;;;;5004487;28;20038;-85
2022/10/13 07:48:52;;;;;;;0.82;0.82;;;14.40;99.90;;;;;;5002617;28;20073;-81
2022/10/13 07:51:19;;;;;;;0.40;0.40;;;14.50;99.90;;;;;;5002383;28;20259;-85
2022/10/13 07:53:45;;;;;;;2.00;1.90;;;14.60;99.90;;;;;;5002250;28;20247;-88
2022/10/13 07:56:13;;;;;;;0.30;0.30;;;14.60;99.90;;;;;;5002754;28;20042;-78
2022/10/13 07:58:42;;;;;;;1.13;1.10;;;14.70;99.90;;;;;;5002665;28;20026;-80
2022/10/13 08:01:08;;;;;;;0.28;0.28;;;14.90;99.90;;;;;;5002389;28;20029;-87
2022/10/13 08:03:35;;;;;;;1.77;1.67;;;15.00;99.90;;;;;;4984965;28;20037;-79
2022/10/13 08:06:03;;;;;;;1.88;1.77;;;14.70;99.90;;;;;;5002640;28;20501;-78
2022/10/13 08:08:29;;;;;;;0.20;0.20;;;15.00;99.90;;;;;;5003114;28;20033;-83
2022/10/13 08:11:03;;;;;;;0.20;0.20;;;15.20;99.90;;;;;;5002528;28;20343;-85
2022/10/13 08:13:29;;;;;;;1.65;1.55;;;15.30;99.90;;;;;;5002204;28;20052;-80
2022/10/13 08:15:58;;;;;;;21.40;15.88;;;15.50;99.90;;;;;;5002734;28;20238;-79
2022/10/13 08:18:24;;;;;;;2.08;1.98;;;15.60;99.90;;;;;;5002075;28;20260;-78
2022/10/13 08:20:50;;;;;;;0.98;0.98;;;15.60;99.90;;;;;;5002199;28;20390;-85
2022/10/13 08:23:15;;;;;;;0.17;0.17;;;15.60;99.90;;;;;;5004036;28;20057;-80
2022/10/13 08:25:43;;;;;;;0.43;0.43;;;15.60;99.90;;;;;;5003150;28;20048;-85
2022/10/13 08:28:27;;;;;;;0.85;0.85;;;15.60;99.90;;;;;;5003561;28;20369;-82
2022/10/13 08:30:54;;;;;;;4.07;3.20;;;15.60;99.90;;;;;;5002776;28;20058;-81
2022/10/13 08:33:20;;;;;;;4.28;3.13;;;15.70;99.90;;;;;;5003282;28;20212;-79
2022/10/13 08:35:49;;;;;;;0.20;0.20;;;15.70;99.90;;;;;;5002528;28;20033;-81
2022/10/13 08:38:15;;;;;;;1.73;1.65;;;15.80;99.90;;;;;;4984200;28;20260;-80
2022/10/13 08:40:46;;;;;;;1.63;1.55;;;15.80;99.90;;;;;;5003646;28;20033;-84
2022/10/13 08:43:15;;;;;;;3.85;3.65;;;15.80;99.90;;;;;;5003435;28;20096;-78
2022/10/13 08:45:41;;;;;;;0.28;0.28;;;15.70;99.90;;;;;;5001615;28;20119;-84
2022/10/13 08:48:39;;;;;;;16.45;4.68;;;15.70;99.90;;;;;;5001090;28;20096;-80
2022/10/13 08:51:14;;;;;;;0.20;0.20;;;15.70;99.90;;;;;;4920542;29;20102;-78
2022/10/13 08:53:43;;;;;;;0.90;0.85;;;15.80;99.90;;;;;;4921439;29;20638;-78
2022/10/13 08:56:23;;;;;;;3.60;3.38;;;15.80;99.90;;;;;;4904625;29;20346;-78
2022/10/13 08:58:51;;;;;;;0.68;0.68;;;15.80;99.90;;;;;;4920706;29;20118;-77
2022/10/13 09:01:22;;;;;;;4.07;2.40;;;15.80;99.90;;;;;;4919726;29;20185;-85
2022/10/13 09:03:55;;;;;;;0.17;0.17;;;15.90;99.90;;;;;;4920335;29;20518;-77
2022/10/13 09:06:27;;;;;;;1.95;1.88;;;16.10;99.90;;;;;;4921185;29;20091;-84
2022/10/13 09:09:01;;;;;;;2.28;2.15;;;16.20;99.90;;;;;;4904162;29;20091;-81
2022/10/13 09:11:34;;;;;;;2.38;2.17;;;16.30;99.90;;;;;;4919878;29;20038;-79
2022/10/13 09:14:04;;;;;;;0.73;0.73;;;16.40;99.90;;;;;;4919810;29;20036;-76
2022/10/13 09:16:34;;;;;;;0.30;0.30;;;16.20;99.90;;;;;;4903434;29;20276;-85
2022/10/13 09:19:21;;;;;;;0.88;0.82;;;16.80;99.90;;;;;;4906161;29;20027;-84
2022/10/13 09:21:48;;;;;;;4.40;2.88;;;17.00;99.90;;;;;;4921788;29;20039;-81
2022/10/13 09:24:17;;;;;;;0.68;0.68;;;17.30;99.90;;;;;;4921943;29;20035;-77
2022/10/13 09:26:46;;;;;;;0.45;0.45;;;18.70;99.90;;;;;;4935324;28;20536;-78
2022/10/13 09:29:23;;;;;;;2.17;2.08;;;17.80;99.90;;;;;;4982830;28;20223;-80
2022/10/13 09:31:49;;;;;;;2.17;2.05;;;18.10;99.90;;;;;;4999977;28;20054;-78
2022/10/13 09:34:23;;;;;;;2.85;2.65;;;18.50;99.90;;;;;;5001571;28;20092;-78
2022/10/13 09:37:00;;;;;;;5.05;3.20;;;18.60;99.90;;;;;;4981716;28;20485;-78
2022/10/13 09:39:26;;;;;;;8.13;3.15;;;18.80;99.90;;;;;;4999407;28;20319;-78
2022/10/13 09:42:07;;;;;;;3.35;1.27;;;18.90;99.90;;;;;;5000614;28;20029;-82
2022/10/13 09:44:33;;;;;;;1.02;0.98;;;18.80;99.90;;;;;;5000030;28;20050;-81
2022/10/13 09:47:03;;;;;;;1.50;1.45;;;18.80;99.90;;;;;;4981487;28;20143;-85
2022/10/13 09:49:42;;;;;;;2.20;2.10;;;18.40;99.90;;;;;;4999960;28;20088;-78
2022/10/13 09:52:10;;;;;;;7.70;6.95;;;18.50;99.90;;;;;;5001673;28;20319;-81
2022/10/13 09:54:48;;;;;;;2.15;2.05;;;18.40;99.90;;;;;;5003443;28;20022;-78
2022/10/13 09:57:29;;;;;;;3.60;3.35;;;18.40;99.90;;;;;;4983488;28;20030;-83
2022/10/13 10:00:20;;;;;;;5.03;4.65;;;18.50;99.90;;;;;;5001077;28;20044;-87
2022/10/13 10:03:16;;;;;;;2.92;2.65;;;18.40;99.90;;;;;;5006415;28;20026;-80
2022/10/13 10:05:51;;;;;;;4.38;3.40;;;18.30;99.90;;;;;;4986779;28;20243;-79
2022/10/13 10:08:32;;;;;;;1.83;1.73;;;18.30;99.90;;;;;;4985592;28;20195;-76
2022/10/13 10:11:02;;;;;;;1.33;1.23;;;18.20;99.90;;;;;;4983184;28;20022;-77
2022/10/13 10:13:27;;;;;;;4.55;4.10;;;18.30;99.90;;;;;;4999984;28;20025;-79
2022/10/13 10:16:35;;;;;;;12.10;7.57;;;18.30;99.90;;;;;;4999884;28;20026;-82
2022/10/13 10:19:24;;;;;;;0.65;0.65;;;18.50;99.90;;;;;;5000945;28;20022;-79
2022/10/13 10:22:15;;;;;;;0.40;0.40;;;18.40;99.90;;;;;;5003364;28;20014;-91
2022/10/13 10:24:57;;;;;;;2.78;2.67;;;18.50;99.90;;;;;;5004633;28;20677;-85
2022/10/13 10:27:35;;;;;;;0.22;0.22;;;18.50;99.90;;;;;;5003413;28;20179;-82
2022/10/13 10:30:05;;;;;;;1.83;1.73;;;18.60;99.90;;;;;;5009103;28;20030;-89
2022/10/13 10:33:13;;;;;;;1.35;1.27;;;18.70;99.90;;;;;;5007619;28;20052;-80
2022/10/13 10:36:15;;;;;;;0.63;0.63;;;18.80;99.90;;;;;;4928320;29;20329;-81
2022/10/13 10:39:21;;;;;;;2.40;1.65;;;18.90;99.90;;;;;;4925720;29;20176;-86
2022/10/13 10:42:29;;;;;;;12.00;10.52;;;19.20;99.90;;;;;;4867519;29;20401;-80
2022/10/13 10:44:56;;;;;;;3.75;3.55;;;19.30;99.90;;;;;;4773412;30;20306;-83
2022/10/13 10:47:36;;;;;;;0.82;0.82;;;19.10;99.90;;;;;;4773319;30;20232;-90
2022/10/13 10:50:05;;;;;;;0.63;0.63;;;19.40;99.90;;;;;;4772651;30;20359;-91
2022/10/13 10:52:52;;;;;;;3.03;2.83;;;19.50;99.90;;;;;;4773043;30;20111;-82
2022/10/13 10:55:20;;;;;;;1.08;1.02;;;19.60;99.90;;;;;;4771763;29;20507;-81
2022/10/13 10:58:11;;;;;;;1.52;1.42;;;19.30;99.90;;;;;;4783622;30;20050;-81
2022/10/13 11:01:06;;;;;;;0.45;0.45;;;19.20;99.90;;;;;;4787800;29;20155;-87
2022/10/13 11:03:44;;;;;;;1.40;1.15;;;19.00;99.90;;;;;;4786724;30;20107;-79
2022/10/13 11:06:15;;;;;;;2.00;1.90;;;19.00;99.90;;;;;;4791820;29;20062;-85
2022/10/13 11:08:45;;;;;;;0.10;0.10;;;19.00;99.90;;;;;;4801380;29;20083;-78
2022/10/13 11:11:27;;;;;;;0.88;0.88;;;18.90;99.90;;;;;;4796626;29;20480;-83
2022/10/13 11:13:55;;;;;;;0.60;0.60;;;19.00;99.90;;;;;;4798490;29;20027;-79
2022/10/13 11:16:31;;;;;;;0.95;0.95;;;19.00;99.90;;;;;;4800418;29;20041;-81
2022/10/13 11:19:23;;;;;;;5.40;4.43;;;19.20;99.90;;;;;;4875692;29;20036;-78
2022/10/13 11:22:13;;;;;;;1.10;1.00;;;19.30;99.90;;;;;;4958509;28;20034;-80
2022/10/13 11:24:39;;;;;;;1.08;1.00;;;19.70;99.90;;;;;;4991298;28;20242;-78
2022/10/13 11:27:11;;;;;;;2.67;0.93;;;19.90;99.90;;;;;;5007722;28;20132;-79
2022/10/13 11:30:00;;;;;;;1.25;1.23;;;20.30;99.90;;;;;;5006189;28;20053;-85
2022/10/13 11:35:24;;;;;;;3.45;3.20;;;20.60;99.90;;;;;;4905887;29;20096;-80
2022/10/13 11:38:03;;;;;;;3.40;3.10;;;20.80;99.90;;;;;;4905510;29;20348;-79
2022/10/13 11:40:41;;;;;;;0.73;0.73;;;20.80;99.90;;;;;;4888894;29;20036;-86
2022/10/13 11:43:18;;;;;;;0.20;0.20;;;21.00;99.90;;;;;;4904371;29;20048;-81
2022/10/13 11:45:44;;;;;;;2.25;2.05;;;20.70;99.90;;;;;;4903704;29;20048;-81
2022/10/13 11:48:28;;;;;;;1.17;1.13;;;20.90;99.90;;;;;;4888854;29;20571;-85
2022/10/13 11:51:02;;;;;;;1.05;0.95;;;21.10;99.90;;;;;;4904136;29;20253;-85
2022/10/13 11:53:47;;;;;;;6.10;1.70;;;21.50;99.90;;;;;;4904120;29;20405;-82
2022/10/13 11:56:33;;;;;;;0.90;0.90;;;21.70;99.90;;;;;;4903305;29;20055;-78
2022/10/13 11:58:59;;;;;;;1.42;1.33;;;21.90;99.80;;;;;;4903352;29;20181;-85
2022/10/13 12:01:25;;;;;;;0.50;0.50;;;22.10;99.80;;;;;;4888266;29;20028;-85
2022/10/13 12:03:51;;;;;;;0.85;0.85;;;22.00;99.30;;;;;;4904068;29;20275;-84
2022/10/13 12:06:33;;;;;;;0.80;0.55;;;22.20;99.30;;;;;;4906220;29;20068;-80
2022/10/13 12:09:06;;;;;;;0.82;0.82;;;22.50;98.40;;;;;;4914614;29;20035;-85
2022/10/13 12:11:34;;;;;;;;;;;22.80;97.80;;;;;;4954804;28;20595;-78
2022/10/13 12:14:02;;;;;;;1.60;1.50;;;22.80;97.50;;;;;;5002710;28;20344;-89
2022/10/13 12:16:28;;;;;;;3.63;3.35;;;23.00;97.10;;;;;;5001636;28;20052;-85
2022/10/13 12:19:06;;;;;;;1.50;1.15;;;23.10;97.00;;;;;;5002599;28;20042;-82
2022/10/13 12:21:32;;;;;;;1.02;1.00;;;23.10;96.70;;;;;;4985573;28;20285;-84
2022/10/13 12:24:08;;;;;;;10.52;5.57;;;22.90;96.40;;;;;;5003255;28;20543;-88
2022/10/13 12:26:34;;;;;;;0.20;0.20;;;22.80;97.10;;;;;;5001027;28;20457;-82
2022/10/13 12:29:02;;;;;;;0.88;0.88;;;22.80;96.70;;;;;;5003197;28;20022;-80
2022/10/13 12:31:43;;;;;;;1.33;1.27;;;22.60;96.90;;;;;;5002532;28;20062;-79
2022/10/13 12:34:29;;;;;;;1.70;1.60;;;22.50;97.10;;;;;;5001122;28;20219;-85
2022/10/13 12:36:59;;;;;;;0.55;0.55;;;22.50;96.60;;;;;;5001931;28;20405;-82
2022/10/13 12:39:28;;;;;;;0.17;0.17;;;22.50;97.00;;;;;;4984833;28;20105;-81
2022/10/13 12:41:56;;;;;;;0.65;0.65;;;22.10;97.60;;;;;;4984239;28;20026;-80
2022/10/13 12:44:24;;;;;;;0.10;0.10;;;22.30;97.40;;;;;;5003791;28;20036;-81
2022/10/13 12:46:55;;;;;;;0.10;0.10;;;22.50;96.90;;;;;;5002608;28;20378;-79
2022/10/13 12:49:27;;;;;;;0.90;0.73;;;22.60;95.90;;;;;;5002892;28;20235;-85
2022/10/13 12:52:07;;;;;;;5.10;2.95;;;22.60;95.00;;;;;;5002966;28;20045;-79
2022/10/13 12:54:37;;;;;;;1.15;1.10;;;22.40;95.50;;;;;;5002745;28;20204;-81
2022/10/13 12:57:17;;;;;;;3.60;1.63;;;22.60;95.50;;;;;;5002161;28;20295;-85
2022/10/13 12:59:43;;;;;;;0.50;0.50;;;22.60;94.60;;;;;;4985492;28;20030;-86
2022/10/13 13:02:23;;;;;;;3.95;2.17;;;22.60;94.70;;;;;;5005175;28;20228;-83
2022/10/13 13:04:49;;;;;;;0.82;0.68;;;22.90;94.70;;;;;;5002839;28;20108;-84
2022/10/13 13:07:29;;;;;;;1.85;1.45;;;23.10;93.60;;;;;;4985753;28;20125;-78
2022/10/13 13:10:07;;;;;;;0.77;0.77;;;23.20;93.70;;;;;;4987503;28;20022;-83
2022/10/13 13:12:36;;;;;;;1.02;0.98;;;23.20;93.90;;;;;;5004578;28;20086;-83
2022/10/13 13:15:20;;;;;;;1.17;0.90;;;23.40;93.80;;;;;;5003773;28;20307;-87
2022/10/13 13:17:46;;;;;;;0.57;0.57;;;23.30;94.20;;;;;;5003832;28;20030;-85